SPJLSPZO

Guest
Details From SPJL - JULIACA
To SPZO - TENIENTE ALEJANDRO VELASCO ASTETE INTL
Flight Number -
Tags generated
Created
Modified
Stats Distance 156 nm / 289 km
Max Altitude 18,200 ft / 5,547 m
Waypoints 3
Social Downloads 1
Likes 0
Share VATSIM

Download

Looking for another format? Having issues loading an existing format? Contact us
Advertisement - Login to hide

Notes

Basic altitude profile: - Ascent Rate: 2500ft/min - Ascent Speed: 250kts - Cruise Altitude: 35000ft - Cruise Speed: 420kts - Descent Rate: 1500ft/min - Descent Speed: 250kts Options: - Use NATs: yes - Use PACOTS: yes - Use low airways: yes - Use high airways: yes

Route

SPJL ILMOX SPZO

ID Type Via Altitude Latitude Longitude Leg Dist Tot Dist Heading (true) Name
O SPJL APT - 0 ft / 0 m -15.46710˚ -70.15817˚ - 0 nm - JULIACA
ILMOX FIX - 18,200 ft / 5,547 m -14.59444˚ -70.84444˚ 65 nm 65 nm 323° / 323° -
O SPZO APT - 0 ft / 0 m -13.53572˚ -71.93878˚ 90 nm 155 nm 315° / 315° TENIENTE ALEJANDRO VELASCO ASTETE INTL

Altitude Profile

Advertisement - Login to hide

SPJL

Details ICAO SPJL (JUL)
Name JULIACA
Region Peru
Timezone America/Lima (UTC-5.0)
Stats Elevation 12,552 ft / 3,826 m (AMSL)
Location -15.467104° -70.158169°
Runways 1
Magnetic Variation 6.525° W

METAR

SPJL 152100Z 13011KT 9999 SCT020 16/M01 Q1031 RMK PPOOO

Decode

TAF

TAF TAF SPJL 151700Z 1518/1618 13010KT 9999 SCT025 TX18/1519Z TN03/1610Z TEMPO 1521/1601 10015KT 9999 SCT010 BKN080

Decode

Departure Runways

ID Width Length Bearing (true) Bearing (mag) Surface Threshold Offset Overrun Length
12 150 ft / 46 m 13,782 ft / 4,201 m 112.07° 118.60° Asphalt 0 ft / 0 m 200 ft / 61 m
30 150 ft / 46 m 13,782 ft / 4,201 m 292.06° 298.59° Asphalt 0 ft / 0 m 200 ft / 61 m

SPZO

Details ICAO SPZO (CUZ)
Name TENIENTE ALEJANDRO VELASCO ASTETE INTL
Region Peru
Timezone America/Lima (UTC-5.0)
Stats Elevation 10,860 ft / 3,310 m (AMSL)
Location -13.535722° -71.938780°
Runways 1
Magnetic Variation 5.555° W

METAR

SPZO 152100Z 35007KT 9999 FEW050 SCT100 18/02 Q1026 NOSIG RMK BIRD HAZARD RWY28 PP000

Decode

TAF

TAF SPZO 151115Z 1512/1612 VRB05KT 9999 SCT046 OVC080 TX24/1519Z TN10/1611Z TEMPO 1519/1523 36012KT FEW040TCU SCT046 BKN080 BECMG 1523/1602 00000KT SCT043 BKN080 TEMPO 1602/1605 RA FEW030 SCT040 BKN070

Decode

Destination Runways

ID Width Length Bearing (true) Bearing (mag) Surface Threshold Offset Overrun Length
10 148 ft / 45 m 11,135 ft / 3,394 m 95.97° 101.53° Asphalt 0 ft / 0 m 215 ft / 66 m
28 148 ft / 45 m 11,135 ft / 3,394 m 275.96° 281.52° Asphalt 0 ft / 0 m 200 ft / 61 m